Rehoboth Beach, Delaware
Current Conditions -  °F | °C
As of 10:28 AM on Monday 24 Nov 2014 (Local Time) from KGED Reporting Station
Scattered Clouds Scattered Clouds  
Wind Chill: 70°   Ceiling: Unl
Heat Index: 70°   Visibility: 10mi
Dew Point: 60°   Wind: 24mph
Humidity: 71%   Direction: 210°SSW
Pressure: 29.74"   Gusts: 35mph
Location:  38.72°N, 75.08°W
Report Text: KGED 241528Z AUTO 21021G30KT 10SM SCT024 21/16 A2974 RMK AO2 PK WND 22032/1510 T02110156
Loading
Personal Weather Stations






























Interactive Weather Map New forecast layout! Learn more

10-Day Weather Forecast

Advertisements
Track Severe Weather on mobile